createdAt,value
2022-10-17T18:44:16.552Z,12.70
2022-10-17T18:49:18.615Z,13.70
2022-10-17T18:51:46.530Z,12.10
2022-10-17T18:54:20.048Z,12.50
2022-10-17T18:56:50.558Z,12.60
2022-10-17T18:59:19.355Z,12.00
2022-10-17T19:01:46.974Z,14.20
2022-10-17T19:04:14.812Z,20.90
2022-10-17T19:06:42.709Z,18.20
2022-10-17T19:09:12.477Z,17.00
2022-10-17T19:11:40.173Z,13.30
2022-10-17T19:14:12.444Z,14.80
2022-10-17T19:16:48.777Z,16.30
2022-10-17T19:19:25.432Z,13.40
2022-10-17T19:21:57.659Z,17.30
2022-10-17T19:24:30.074Z,17.90
2022-10-17T19:27:02.095Z,21.00
2022-10-17T19:29:32.897Z,19.90
2022-10-17T19:32:00.496Z,20.10
2022-10-17T19:34:27.722Z,21.20
2022-10-17T19:36:55.343Z,21.40
2022-10-17T19:39:23.417Z,22.30
2022-10-17T19:41:50.552Z,22.60
2022-10-17T19:44:18.001Z,22.30
2022-10-17T19:46:46.400Z,19.50
2022-10-17T19:49:13.978Z,20.60
2022-10-17T19:51:41.580Z,17.70
2022-10-17T19:54:09.144Z,19.00
2022-10-17T19:56:37.823Z,20.50
2022-10-17T19:59:06.511Z,14.50
2022-10-17T20:01:38.337Z,15.10
2022-10-17T20:04:08.293Z,13.90
2022-10-17T20:06:35.829Z,10.90
2022-10-17T20:09:04.742Z,9.70
2022-10-17T20:11:32.044Z,11.00
2022-10-17T20:14:01.414Z,10.20
2022-10-17T20:16:33.071Z,10.20
2022-10-17T20:19:08.121Z,11.30
2022-10-17T20:21:39.064Z,9.80
2022-10-17T20:24:11.732Z,9.70
2022-10-17T20:26:40.067Z,10.20
2022-10-17T20:29:17.941Z,9.10
2022-10-17T20:31:46.797Z,10.70
2022-10-17T20:34:17.512Z,10.00
2022-10-17T20:36:45.518Z,9.40
2022-10-17T20:39:14.674Z,10.10
2022-10-17T20:41:43.346Z,9.50
2022-10-17T20:44:11.568Z,9.10
2022-10-17T20:46:44.760Z,9.40
2022-10-17T20:49:18.408Z,9.90
2022-10-17T20:51:46.078Z,9.60
2022-10-17T20:54:13.295Z,10.30
2022-10-17T20:56:40.551Z,10.80
2022-10-17T20:59:14.373Z,10.00
2022-10-17T21:01:41.919Z,11.70
2022-10-17T21:06:57.785Z,15.30
2022-10-17T21:09:25.177Z,16.40
2022-10-17T21:11:55.420Z,16.60
2022-10-17T21:14:24.234Z,15.70
2022-10-17T21:16:51.756Z,16.20
2022-10-17T21:19:19.139Z,17.00
2022-10-17T21:21:46.351Z,17.50
2022-10-17T21:24:17.327Z,18.50
2022-10-17T21:26:46.450Z,19.80
2022-10-17T21:29:13.809Z,20.90
2022-10-17T21:31:43.521Z,20.40
2022-10-17T21:34:18.164Z,20.80
2022-10-17T21:36:45.341Z,20.00
2022-10-17T21:39:14.153Z,20.40
2022-10-17T21:41:42.062Z,20.30
2022-10-17T21:44:21.741Z,20.50
2022-10-17T21:46:49.439Z,18.70
2022-10-17T21:49:19.830Z,20.00
2022-10-17T21:51:48.015Z,19.60
2022-10-17T21:54:16.604Z,20.60
2022-10-17T21:56:44.463Z,20.40
2022-10-17T21:59:12.365Z,20.40
2022-10-17T22:01:43.133Z,20.30
2022-10-17T22:04:14.537Z,20.00
2022-10-17T22:09:21.683Z,18.60
2022-10-17T22:11:52.593Z,19.20
2022-10-17T22:14:22.859Z,20.70
2022-10-17T22:16:50.219Z,19.40
2022-10-17T22:19:24.139Z,20.40
2022-10-17T22:21:51.842Z,20.40
2022-10-17T22:26:48.807Z,22.70
2022-10-17T22:29:16.002Z,23.70
2022-10-17T22:31:43.277Z,23.10
2022-10-17T22:34:13.691Z,22.00
2022-10-17T22:36:42.123Z,21.30
2022-10-17T22:39:10.188Z,21.20
2022-10-17T22:41:37.338Z,21.30
2022-10-17T22:44:05.187Z,22.30
2022-10-17T22:46:32.304Z,22.00
2022-10-17T22:48:59.449Z,21.10
2022-10-17T22:51:27.219Z,21.10
2022-10-17T22:53:54.589Z,22.30
2022-10-17T22:56:23.119Z,20.40
2022-10-17T22:58:50.437Z,19.70
2022-10-17T23:01:21.757Z,18.80
2022-10-17T23:03:50.171Z,19.60
2022-10-17T23:06:18.403Z,19.70
2022-10-17T23:08:45.762Z,19.10
2022-10-17T23:11:12.912Z,19.30
2022-10-17T23:13:40.367Z,17.30
2022-10-17T23:16:08.001Z,18.30
2022-10-17T23:18:36.151Z,17.80
2022-10-17T23:21:03.795Z,19.00
2022-10-17T23:23:30.814Z,17.80
2022-10-17T23:26:11.190Z,17.70
2022-10-17T23:28:39.327Z,17.30
2022-10-17T23:31:19.003Z,17.50
2022-10-17T23:33:48.301Z,15.80
2022-10-17T23:36:18.659Z,15.60
2022-10-17T23:38:47.019Z,16.70
2022-10-17T23:41:15.137Z,16.00
2022-10-17T23:43:44.246Z,16.40
2022-10-17T23:46:12.185Z,17.70
2022-10-17T23:48:40.220Z,15.90
2022-10-17T23:51:09.048Z,15.30
2022-10-17T23:53:37.654Z,15.20
2022-10-17T23:56:06.719Z,14.60
2022-10-17T23:58:38.107Z,15.10
